Latest  Newer  Older  Last 2 hours slideshow  Last 24 hours slideshow  Refresh every 5 minutes 
Current image  Latest image  Rain/snow radar  Cloud coverage sat images 

All time is UTC (add 2 hours to UTC in wintertime, 3 hours to UTC in DST for Latvia local time)

2020/09/29 02:20 EVRA 290220Z 18002KT CAVOK 10/10 Q1018 NOSIG
2020/09/29 02:20 EVLA 290220Z AUTO 05002KT 0700 R24/0800N R06/P2000N FG NCD 05/05 Q1017
2020/09/29 02:20 EVVA 290220Z AUTO VRB02KT 7000 BKN033 09/09 Q1018
2020/09/29 02:20 EYKA 290220Z 12003KT 090V160 9999 3700E BR NSC 05/03 Q1018
2020/09/29 02:20 EYPA 290220Z VRB02KT CAVOK 06/06 Q1018
2020/09/29 02:20 EYSA 290220Z 14002KT CAVOK 05/05 Q1019 BLU NOSIG
2020/09/29 02:20 EYVI 290220Z 10005KT 9999 MIFG NSC 08/06 Q1018 NOSIG

2020/09/29 01:50 EEKE 290150Z AUTO 00000KT 9999NDV FEW010 OVC031 13/12 Q1017

2020/09/29 02:20 EETN 290220Z 11003KT 9999 BKN018 10/09 Q1018
2020/09/29 01:50 EETU 290150Z AUTO 13002KT 9999 OVC004/// 12/11 Q1018
   RIGA AIRPORT     EVRA               56 55N  023 58E   10   X     T          6 LV
   LIEPAJA INTL     EVLA        26406  56 31N  021 06E    4   X                8 LV
   VENTPILS         EVVA               57 21N  021 33E    6   X                8 LV
   KAUNAS           EYKA               54 54N  023 55E   77   X     T          6 LT
   PALANGA INTL     EYPA               55 55N  021 03E   10   X                6 LT
   SIAULIAI INTL    EYSA               55 54N  023 24E  135   X     T          6 LT
   VILNIUS INTL     EYVI        26730  54 38N  025 17E  197   X     T          6 LT
   KARDLA           EEKA        26116  58 59N  022 50E    4   X                8 EE
   KURESSAARE       EEKE               58 14N  022 31E    4   X                8 EE
   PARNU            EEPU               58 25N  024 28E   14   X                8 EE
   TALLINN          EETN        26038  59 24N  024 49E   40   X     T          8 EE
   TARTU            EETU               58 19N  026 41E   67   X                8 EE